Aviation Digital Data Service (ADDS)

Output produced by METARs form (1709 UTC 29 May 2017)
found at http://www.aviationweather.gov/adds/metars/
 
MUSC 291700Z 2918/3018 07010KT 9000 SCT020 
     TEMPO 2921/2924 5000 TSRA SCT018CB BKN020 
     BECMG 3002/3004 09010KT 
     BECMG 3016/3018 06010KT
       
MUCU 291700Z 2918/3018 19010KT 9000 SCT020 
     BECMG 3003/3005 36005KT 
     BECMG 3016/3018 18010KT
       
MUHG 291700Z 2918/3018 09010KT 9000 SCT020 
     TEMPO 2921/2924 5000 TSRA SCT018CB BKN020 
     BECMG 3002/3004 09004KT 
     BECMG 3016/3018 08010KT
       
TAF MUGM 2915/3015 13014KT 9999 SCT035 SCT250 QNH2999INS 
     BECMG 3003/3005 33006KT 9999 FEW035 FEW250 QNH2998INS 
     BECMG 3013/3014 13014KT 9999 FEW035 SCT250 QNH2988INS T32/2919Z T24/3010Z FN00077
       
MUCM 291700Z 2918/3018 06010KT 9000 SCT020 
     TEMPO 2921/2924 5000 TSRA SCT018CB BKN020 
     BECMG 3002/3004 10005KT 
     BECMG 3016/3018 06010KT
       
MUCF 291700Z 2918/2924 22010KT 9000 SCT020 
     TEMPO 2921/2924 5000 SHRA SCT018CB BKN020
       
MUCC 291700Z 2918/3018 07010KT 9000 SCT020 
     BECMG 3002/3004 11005KT 
     BECMG 3016/3018 07010KT
       
MUHA 291700Z 2918/3018 14010KT 9000 SCT025 
     BECMG 3001/3003 VRB03KT 
     BECMG 3011/3013 07008KT 9000 FEW025
       
MUVR 291700Z 2918/3018 06012KT 9000 SCT020 
     TEMPO 2921/2924 5000 SHRA SCT018CB BKN020 
     BECMG 3002/3004 11005KT 
     BECMG 3016/3018 06010KT
       
MUCL 291700Z 2918/2924 10010KT 9000 SCT020